createdAt,value
2023-01-07T00:01:37.403Z,8.32
2023-01-07T00:04:09.101Z,5.47
2023-01-07T00:06:39.600Z,5.28
2023-01-07T00:09:12.560Z,7.25
2023-01-07T00:11:41.664Z,9.95
2023-01-07T00:14:13.066Z,8.27
2023-01-07T00:16:41.602Z,9.82
2023-01-07T00:19:14.305Z,7.37
2023-01-07T00:21:43.427Z,6.75
2023-01-07T00:24:12.382Z,4.97
2023-01-07T00:26:40.911Z,6.25
2023-01-07T00:29:09.907Z,6.75
2023-01-07T00:31:40.761Z,12.37
2023-01-07T00:34:09.742Z,8.65
2023-01-07T00:36:44.914Z,6.60
2023-01-07T00:39:19.090Z,7.22
2023-01-07T00:42:07.738Z,6.80
2023-01-07T00:44:38.028Z,7.47
2023-01-07T00:47:07.219Z,4.10
2023-01-07T00:49:35.869Z,3.67
2023-01-07T00:52:04.036Z,5.37
2023-01-07T00:54:32.171Z,5.07
2023-01-07T00:57:00.559Z,4.72
2023-01-07T00:59:29.777Z,6.25
2023-01-07T01:01:58.004Z,7.25
2023-01-07T01:04:26.827Z,7.05
2023-01-07T01:06:54.946Z,11.75
2023-01-07T01:09:25.408Z,6.75
2023-01-07T01:11:53.893Z,9.35
2023-01-07T01:14:22.059Z,6.43
2023-01-07T01:16:50.547Z,9.50
2023-01-07T01:19:19.162Z,5.50
2023-01-07T01:21:47.269Z,7.82
2023-01-07T01:24:15.530Z,5.97
2023-01-07T01:26:44.462Z,5.90
2023-01-07T01:29:12.557Z,8.75
2023-01-07T01:31:40.740Z,5.43
2023-01-07T01:34:09.667Z,6.32
2023-01-07T01:36:38.775Z,5.93
2023-01-07T01:39:06.893Z,6.45
2023-01-07T01:41:35.712Z,8.48
2023-01-07T01:44:33.733Z,5.65
2023-01-07T01:47:08.691Z,7.97
2023-01-07T01:49:41.230Z,9.90
2023-01-07T01:52:13.517Z,5.47
2023-01-07T01:54:56.372Z,13.98
2023-01-07T01:57:29.223Z,8.45
2023-01-07T01:59:58.610Z,7.30
2023-01-07T02:02:35.048Z,9.10
2023-01-07T02:05:04.817Z,12.23
2023-01-07T02:07:33.003Z,9.07
2023-01-07T02:10:12.872Z,12.73
2023-01-07T02:12:46.371Z,12.10
2023-01-07T02:15:40.841Z,9.93
2023-01-07T02:18:18.428Z,9.68
2023-01-07T02:21:18.084Z,9.73
2023-01-07T02:24:07.817Z,11.20
2023-01-07T02:26:46.873Z,16.20
2023-01-07T02:29:56.827Z,14.73
2023-01-07T02:32:30.934Z,7.47
2023-01-07T02:35:05.057Z,7.25
2023-01-07T02:37:59.312Z,10.05
2023-01-07T02:40:43.327Z,6.70
2023-01-07T02:43:36.132Z,6.53
2023-01-07T02:46:23.313Z,10.13
2023-01-07T02:48:51.875Z,4.60
2023-01-07T02:51:31.086Z,9.52
2023-01-07T02:53:59.857Z,8.43
2023-01-07T02:56:57.403Z,11.32
2023-01-07T02:59:36.751Z,7.50
2023-01-07T03:02:36.591Z,15.05
2023-01-07T03:05:23.084Z,9.43
2023-01-07T03:08:23.609Z,16.12
2023-01-07T03:11:00.476Z,10.05
2023-01-07T03:13:43.322Z,9.52
2023-01-07T03:16:36.733Z,18.65
2023-01-07T03:19:18.333Z,12.50
2023-01-07T03:21:48.851Z,10.10
2023-01-07T03:24:18.919Z,6.30
2023-01-07T03:26:50.732Z,10.00
2023-01-07T03:29:20.546Z,12.68
2023-01-07T03:32:14.389Z,11.70
2023-01-07T03:34:44.745Z,9.77
2023-01-07T03:37:16.897Z,8.93
2023-01-07T03:39:47.271Z,14.25
2023-01-07T03:42:38.272Z,15.63
2023-01-07T03:45:14.473Z,10.10
2023-01-07T03:47:48.440Z,14.00
2023-01-07T03:50:17.681Z,7.57
2023-01-07T03:52:48.542Z,11.48
2023-01-07T03:55:18.022Z,8.98
2023-01-07T03:57:46.740Z,10.77
2023-01-07T04:00:15.957Z,16.35
2023-01-07T04:02:45.685Z,20.58
2023-01-07T04:05:16.613Z,11.68
2023-01-07T04:07:45.175Z,15.57
2023-01-07T04:10:13.747Z,9.32
2023-01-07T04:12:42.818Z,8.52
2023-01-07T04:15:11.689Z,8.20
2023-01-07T04:17:39.908Z,13.13
2023-01-07T04:20:10.400Z,8.93
2023-01-07T04:22:38.823Z,10.45
2023-01-07T04:25:08.377Z,14.40
2023-01-07T04:27:36.777Z,8.05
2023-01-07T04:30:06.436Z,7.95
2023-01-07T04:32:35.462Z,6.45
2023-01-07T04:35:03.777Z,5.15
2023-01-07T04:37:32.438Z,4.45
2023-01-07T04:40:01.228Z,9.80
2023-01-07T04:42:32.343Z,7.40
2023-01-07T04:45:01.384Z,8.57
2023-01-07T04:47:30.245Z,10.52
2023-01-07T04:49:59.118Z,9.02
2023-01-07T04:52:29.220Z,8.27
2023-01-07T04:54:57.580Z,6.85
2023-01-07T04:57:25.636Z,13.30
2023-01-07T04:59:54.425Z,5.28
2023-01-07T05:02:23.019Z,4.30
2023-01-07T05:04:51.638Z,7.55
2023-01-07T05:07:20.106Z,6.78
2023-01-07T05:09:49.235Z,3.45
2023-01-07T05:12:18.485Z,9.00
2023-01-07T05:14:46.983Z,4.10
2023-01-07T05:17:15.200Z,7.00
2023-01-07T05:19:44.296Z,5.12
2023-01-07T05:22:13.057Z,6.78
2023-01-07T05:24:41.977Z,4.40
2023-01-07T05:27:10.359Z,4.25
2023-01-07T05:29:38.875Z,3.17
2023-01-07T05:32:07.297Z,2.97
2023-01-07T05:34:35.731Z,3.25
2023-01-07T05:37:04.346Z,7.65
2023-01-07T05:39:35.212Z,5.62
2023-01-07T05:42:04.736Z,9.70
2023-01-07T05:44:33.516Z,7.68
2023-01-07T05:47:01.687Z,5.05
2023-01-07T05:49:30.063Z,9.30
2023-01-07T05:51:58.124Z,8.55
2023-01-07T05:54:26.132Z,10.60
2023-01-07T05:56:54.623Z,7.87
2023-01-07T05:59:22.799Z,11.27
2023-01-07T06:01:51.124Z,4.30
2023-01-07T06:04:19.536Z,6.90
2023-01-07T06:06:48.356Z,9.15
2023-01-07T06:09:16.603Z,6.75
2023-01-07T06:11:45.143Z,15.68
2023-01-07T06:14:13.197Z,3.00
2023-01-07T06:16:41.283Z,8.85
2023-01-07T06:19:11.218Z,5.93
2023-01-07T06:21:39.523Z,5.18
2023-01-07T06:24:07.789Z,5.97
2023-01-07T06:26:36.533Z,7.30
2023-01-07T06:29:04.719Z,5.53
2023-01-07T06:31:33.485Z,9.30
2023-01-07T06:34:01.955Z,4.15
2023-01-07T06:36:30.108Z,6.10
2023-01-07T06:38:58.180Z,9.02
2023-01-07T06:41:26.734Z,7.62
2023-01-07T06:43:54.760Z,8.85
2023-01-07T06:46:23.137Z,7.15
2023-01-07T06:48:51.555Z,7.82
2023-01-07T06:51:20.009Z,6.95
2023-01-07T06:53:48.080Z,7.65
2023-01-07T06:56:16.409Z,6.22
2023-01-07T06:58:44.732Z,6.45
2023-01-07T07:01:13.225Z,7.53
2023-01-07T07:03:42.015Z,11.48
2023-01-07T07:06:10.812Z,13.30
2023-01-07T07:08:39.076Z,16.50
2023-01-07T07:11:07.585Z,8.88
2023-01-07T07:13:36.113Z,8.40
2023-01-07T07:16:04.538Z,8.35
2023-01-07T07:18:33.372Z,10.70
2023-01-07T07:21:01.522Z,13.25
2023-01-07T07:23:29.610Z,8.27
2023-01-07T07:25:58.036Z,8.57
2023-01-07T07:28:26.201Z,7.28
2023-01-07T07:30:54.286Z,8.30
2023-01-07T07:33:22.743Z,6.28
2023-01-07T07:35:50.793Z,6.93
2023-01-07T07:38:19.215Z,9.63
2023-01-07T07:40:48.076Z,13.43
2023-01-07T07:43:28.378Z,5.87
2023-01-07T07:45:57.779Z,6.05
2023-01-07T07:48:26.312Z,8.68
2023-01-07T07:50:54.649Z,10.25
2023-01-07T07:53:23.333Z,8.60
2023-01-07T07:55:53.238Z,11.23
2023-01-07T07:58:21.968Z,8.15
2023-01-07T08:00:50.583Z,8.98
2023-01-07T08:03:19.046Z,7.55
2023-01-07T08:05:47.276Z,11.25
2023-01-07T08:08:15.733Z,9.73
2023-01-07T08:10:44.702Z,12.88
2023-01-07T08:13:13.121Z,9.27
2023-01-07T08:15:41.285Z,10.30
2023-01-07T08:18:10.462Z,11.75
2023-01-07T08:20:38.989Z,14.98
2023-01-07T08:23:07.931Z,10.90
2023-01-07T08:25:36.791Z,16.00
2023-01-07T08:28:05.074Z,10.20
2023-01-07T08:30:33.296Z,9.30
2023-01-07T08:33:05.560Z,11.12
2023-01-07T08:35:33.934Z,10.82
2023-01-07T08:38:08.050Z,9.10
2023-01-07T08:40:37.493Z,12.55
2023-01-07T08:43:07.641Z,11.10
2023-01-07T08:45:36.214Z,12.05
2023-01-07T08:48:05.217Z,15.85
2023-01-07T08:50:34.333Z,12.88
2023-01-07T08:53:02.546Z,20.45
2023-01-07T08:55:30.633Z,13.30
2023-01-07T08:57:59.067Z,12.95
2023-01-07T09:00:27.673Z,12.37
2023-01-07T09:02:55.764Z,9.45
2023-01-07T09:05:24.650Z,9.82
2023-01-07T09:07:53.758Z,7.78
2023-01-07T09:10:21.951Z,7.37
2023-01-07T09:12:50.932Z,8.55
2023-01-07T09:15:19.194Z,9.77
2023-01-07T09:17:47.434Z,8.82
2023-01-07T09:20:15.888Z,8.25
2023-01-07T09:22:44.167Z,8.63
2023-01-07T09:25:12.311Z,10.25
2023-01-07T09:27:42.347Z,9.05
2023-01-07T09:30:10.930Z,10.63
2023-01-07T09:32:39.221Z,10.07
2023-01-07T09:35:07.904Z,9.95
2023-01-07T09:37:36.227Z,8.60
2023-01-07T09:40:06.101Z,10.27
2023-01-07T09:42:52.120Z,8.10
2023-01-07T09:45:47.056Z,10.23
2023-01-07T09:48:22.166Z,13.82
2023-01-07T09:51:00.911Z,7.22
2023-01-07T09:53:50.209Z,9.07
2023-01-07T09:56:25.045Z,7.37
2023-01-07T09:58:56.240Z,9.98
2023-01-07T10:01:39.951Z,5.32
2023-01-07T10:04:37.665Z,6.47
2023-01-07T10:07:30.489Z,10.20
2023-01-07T10:10:36.549Z,10.38
2023-01-07T10:13:24.781Z,9.00
2023-01-07T10:16:19.105Z,11.35
2023-01-07T10:19:19.587Z,12.45
2023-01-07T10:21:55.635Z,9.35
2023-01-07T10:24:32.631Z,6.75
2023-01-07T10:27:07.287Z,11.38
2023-01-07T10:29:42.285Z,8.20
2023-01-07T10:32:15.792Z,9.73
2023-01-07T10:34:54.092Z,6.55
2023-01-07T10:37:35.328Z,6.95
2023-01-07T10:40:09.354Z,9.40
2023-01-07T10:42:50.877Z,5.87
2023-01-07T10:45:27.397Z,7.28
2023-01-07T10:48:18.065Z,8.00
2023-01-07T10:51:02.241Z,6.50
2023-01-07T10:53:30.497Z,8.83
2023-01-07T10:56:22.340Z,8.13
2023-01-07T10:58:51.038Z,6.07
2023-01-07T11:01:23.198Z,4.87
2023-01-07T11:03:54.065Z,8.88
2023-01-07T11:06:36.924Z,5.80
2023-01-07T11:09:09.135Z,6.53
2023-01-07T11:11:38.420Z,5.45
2023-01-07T11:14:18.890Z,5.68
2023-01-07T11:16:52.469Z,6.50
2023-01-07T11:19:21.669Z,13.07
2023-01-07T11:21:52.088Z,7.60
2023-01-07T11:24:34.656Z,5.03
2023-01-07T11:27:10.304Z,5.60
2023-01-07T11:29:45.250Z,10.43
2023-01-07T11:32:27.143Z,8.45
2023-01-07T11:35:04.261Z,12.27
2023-01-07T11:37:35.456Z,7.65
2023-01-07T11:40:28.952Z,7.78
2023-01-07T11:43:20.296Z,7.12
2023-01-07T11:46:19.242Z,9.30
2023-01-07T11:48:52.754Z,10.40
2023-01-07T11:51:23.136Z,8.07
2023-01-07T11:53:55.455Z,9.18
2023-01-07T11:56:30.711Z,9.15
2023-01-07T11:59:23.265Z,6.90
2023-01-07T12:01:54.801Z,9.60
2023-01-07T12:04:30.842Z,6.75
2023-01-07T12:07:02.971Z,6.55
2023-01-07T12:09:31.339Z,4.85
2023-01-07T12:12:27.909Z,9.35
2023-01-07T12:14:58.630Z,7.45
2023-01-07T12:17:29.780Z,6.62
2023-01-07T12:20:10.523Z,5.60
2023-01-07T12:22:58.813Z,6.22
2023-01-07T12:25:46.278Z,5.65
2023-01-07T12:28:16.324Z,5.50
2023-01-07T12:30:49.557Z,4.53
2023-01-07T12:33:42.287Z,7.68
2023-01-07T12:36:20.443Z,4.55
2023-01-07T12:38:58.031Z,7.70
2023-01-07T12:41:40.973Z,6.15
2023-01-07T12:44:27.536Z,5.55
2023-01-07T12:47:31.865Z,7.12
2023-01-07T12:50:04.824Z,5.00
2023-01-07T12:53:11.438Z,6.12
2023-01-07T12:55:47.157Z,6.93
2023-01-07T12:58:43.607Z,5.90
2023-01-07T13:01:40.789Z,4.90
2023-01-07T13:04:19.538Z,6.93
2023-01-07T13:07:00.273Z,8.73
2023-01-07T13:09:28.775Z,8.73
2023-01-07T13:12:40.991Z,4.50
2023-01-07T13:15:27.321Z,6.93
2023-01-07T13:17:58.804Z,4.55
2023-01-07T13:20:57.750Z,7.15
2023-01-07T13:23:50.639Z,4.87
2023-01-07T13:27:11.686Z,4.00
2023-01-07T13:30:13.201Z,3.60
2023-01-07T13:33:31.005Z,8.18
2023-01-07T13:36:05.033Z,7.07
2023-01-07T13:38:51.957Z,5.75
2023-01-07T13:41:45.092Z,4.62
2023-01-07T13:44:38.204Z,3.25
2023-01-07T13:47:10.189Z,4.62
2023-01-07T13:49:39.420Z,6.22
2023-01-07T13:52:28.245Z,3.70
2023-01-07T13:54:59.793Z,3.45
2023-01-07T13:57:30.684Z,3.85
2023-01-07T14:00:00.912Z,6.78
2023-01-07T14:02:50.000Z,6.35
2023-01-07T14:05:18.369Z,5.30
2023-01-07T14:07:48.546Z,4.70
2023-01-07T14:10:28.617Z,4.22
2023-01-07T14:13:15.741Z,6.50
2023-01-07T14:15:54.005Z,7.37
2023-01-07T14:18:43.872Z,7.12
2023-01-07T14:21:15.530Z,4.87
2023-01-07T14:24:08.150Z,5.62
2023-01-07T14:26:57.946Z,5.37
2023-01-07T14:29:29.167Z,5.28
2023-01-07T14:32:31.239Z,7.47
2023-01-07T14:35:11.997Z,4.75
2023-01-07T14:37:43.595Z,6.00
2023-01-07T14:40:26.920Z,5.90
2023-01-07T14:42:56.770Z,11.10
2023-01-07T14:45:37.268Z,8.73
2023-01-07T14:48:32.461Z,10.55
2023-01-07T14:51:03.878Z,5.25
2023-01-07T14:54:13.953Z,5.90
2023-01-07T14:56:49.174Z,6.90
2023-01-07T14:59:38.963Z,6.78
2023-01-07T15:02:44.373Z,4.20
2023-01-07T15:05:29.537Z,7.22
2023-01-07T15:11:11.095Z,7.95
2023-01-07T15:14:03.640Z,6.60
2023-01-07T15:16:35.242Z,11.52
2023-01-07T15:19:03.853Z,7.62
2023-01-07T15:22:08.270Z,15.30
2023-01-07T15:24:55.442Z,9.73
2023-01-07T15:27:59.056Z,14.52
2023-01-07T15:30:30.127Z,13.45
2023-01-07T15:33:17.113Z,22.52
2023-01-07T15:35:46.287Z,16.37
2023-01-07T15:38:28.866Z,11.27
2023-01-07T15:41:01.726Z,10.48
2023-01-07T15:43:31.902Z,12.07
2023-01-07T15:46:06.187Z,29.55
2023-01-07T15:48:34.586Z,28.17
2023-01-07T15:51:03.001Z,19.98
2023-01-07T15:53:32.043Z,22.95
2023-01-07T15:56:05.850Z,18.85
2023-01-07T15:58:48.807Z,10.25
2023-01-07T16:01:20.398Z,10.93
2023-01-07T16:03:52.428Z,10.55
2023-01-07T16:06:34.919Z,11.15
2023-01-07T16:09:18.317Z,11.80
2023-01-07T16:11:47.198Z,11.40
2023-01-07T16:14:24.919Z,8.98
2023-01-07T16:17:16.055Z,10.95
2023-01-07T16:19:44.653Z,8.77
2023-01-07T16:22:19.397Z,13.70
2023-01-07T16:24:53.315Z,15.10
2023-01-07T16:27:28.839Z,13.10
2023-01-07T16:29:59.407Z,11.38
2023-01-07T16:32:27.709Z,10.82
2023-01-07T16:35:08.301Z,25.50
2023-01-07T16:37:39.658Z,22.58
2023-01-07T16:40:30.148Z,15.55
2023-01-07T16:42:58.653Z,14.95
2023-01-07T16:45:29.687Z,21.17
2023-01-07T16:48:15.512Z,13.62
2023-01-07T16:50:45.157Z,15.98
2023-01-07T16:53:26.097Z,12.73
2023-01-07T16:56:17.851Z,10.25
2023-01-07T16:58:55.608Z,9.25
2023-01-07T17:01:33.740Z,9.93
2023-01-07T17:04:09.144Z,12.70
2023-01-07T17:06:41.189Z,8.30
2023-01-07T17:09:25.991Z,9.50
2023-01-07T17:14:35.869Z,8.48
2023-01-07T17:17:14.926Z,8.70
2023-01-07T17:19:52.326Z,9.75
2023-01-07T17:22:38.157Z,10.65
2023-01-07T17:25:13.246Z,13.27
2023-01-07T17:27:50.617Z,22.52
2023-01-07T17:30:21.705Z,7.25
2023-01-07T17:32:53.339Z,15.13
2023-01-07T17:35:23.528Z,10.70
2023-01-07T17:37:53.219Z,13.20
2023-01-07T17:40:21.366Z,12.70
2023-01-07T17:43:09.042Z,11.75
2023-01-07T17:45:37.540Z,11.73
2023-01-07T17:48:13.989Z,14.48
2023-01-07T17:50:43.099Z,11.77
2023-01-07T17:53:23.460Z,13.30
2023-01-07T17:55:52.685Z,11.00
2023-01-07T17:58:31.833Z,7.93
2023-01-07T18:01:05.600Z,13.32
2023-01-07T18:03:34.276Z,18.23
2023-01-07T18:06:03.696Z,11.25
2023-01-07T18:08:31.766Z,13.30
2023-01-07T18:11:18.843Z,10.63
2023-01-07T18:13:46.971Z,12.15
2023-01-07T18:16:15.675Z,8.95
2023-01-07T18:18:43.896Z,8.25
2023-01-07T18:21:12.311Z,8.23
2023-01-07T18:23:40.853Z,12.73
2023-01-07T18:26:10.053Z,7.30
2023-01-07T18:28:38.288Z,12.43
2023-01-07T18:31:06.731Z,12.02
2023-01-07T18:33:35.524Z,12.13
2023-01-07T18:36:04.115Z,18.62
2023-01-07T18:38:32.651Z,17.33
2023-01-07T18:41:00.708Z,10.75
2023-01-07T18:43:29.023Z,12.93
2023-01-07T18:45:57.596Z,13.40
2023-01-07T18:48:26.324Z,14.60
2023-01-07T18:50:56.610Z,9.93
2023-01-07T18:53:26.763Z,12.05
2023-01-07T18:55:59.500Z,13.73
2023-01-07T18:58:28.158Z,14.00
2023-01-07T19:01:01.492Z,11.27
2023-01-07T19:03:30.108Z,27.75
2023-01-07T19:06:00.034Z,12.77
2023-01-07T19:08:28.405Z,8.15
2023-01-07T19:10:56.833Z,11.23
2023-01-07T19:13:25.022Z,11.75
2023-01-07T19:15:53.298Z,15.20
2023-01-07T19:18:21.788Z,13.13
2023-01-07T19:20:49.865Z,10.00
2023-01-07T19:23:18.125Z,10.70
2023-01-07T19:25:57.203Z,13.18
2023-01-07T19:28:25.662Z,11.55
2023-01-07T19:30:55.280Z,21.70
2023-01-07T19:33:23.515Z,13.27
2023-01-07T19:36:02.340Z,8.55
2023-01-07T19:38:31.085Z,13.07
2023-01-07T19:40:59.292Z,6.60
2023-01-07T19:43:27.696Z,9.75
2023-01-07T19:45:57.472Z,7.75
2023-01-07T19:48:25.796Z,6.87
2023-01-07T19:50:59.543Z,11.18
2023-01-07T19:53:29.550Z,10.43
2023-01-07T19:56:02.068Z,12.50
2023-01-07T19:58:30.682Z,8.55
2023-01-07T20:01:12.310Z,10.93
2023-01-07T20:03:41.318Z,13.13
2023-01-07T20:06:14.895Z,11.70
2023-01-07T20:08:43.702Z,19.83
2023-01-07T20:11:12.816Z,25.65
2023-01-07T20:13:41.587Z,28.98
2023-01-07T20:16:13.229Z,23.73
2023-01-07T20:18:49.885Z,27.85
2023-01-07T20:21:26.507Z,20.50
2023-01-07T20:23:55.168Z,23.60
2023-01-07T20:26:29.459Z,25.17
2023-01-07T20:29:01.576Z,27.20
2023-01-07T20:31:31.316Z,23.87
2023-01-07T20:34:00.344Z,22.90
2023-01-07T20:36:32.779Z,13.75
2023-01-07T20:39:06.140Z,18.25
2023-01-07T20:41:35.496Z,18.45
2023-01-07T20:44:05.609Z,16.80
2023-01-07T20:46:34.891Z,13.68
2023-01-07T20:49:03.798Z,15.32
2023-01-07T20:51:32.097Z,12.95
2023-01-07T20:54:00.369Z,8.05
2023-01-07T20:56:32.203Z,10.25
2023-01-07T20:59:01.810Z,19.70
2023-01-07T21:01:30.510Z,14.30
2023-01-07T21:03:58.756Z,17.30
2023-01-07T21:06:27.574Z,16.65
2023-01-07T21:08:56.348Z,8.35
2023-01-07T21:11:25.118Z,16.48
2023-01-07T21:13:56.099Z,11.32
2023-01-07T21:16:26.353Z,13.60
2023-01-07T21:18:55.434Z,17.05
2023-01-07T21:21:25.410Z,11.07
2023-01-07T21:23:54.667Z,11.57
2023-01-07T21:26:23.625Z,25.60
2023-01-07T21:28:58.316Z,21.50
2023-01-07T21:31:31.379Z,23.00
2023-01-07T21:34:00.034Z,10.85
2023-01-07T21:36:28.456Z,14.00
2023-01-07T21:38:58.899Z,13.85
2023-01-07T21:41:28.579Z,14.32
2023-01-07T21:43:57.292Z,20.27
2023-01-07T21:46:25.406Z,16.02
2023-01-07T21:48:54.663Z,12.93
2023-01-07T21:51:25.773Z,16.87
2023-01-07T21:53:55.967Z,11.48
2023-01-07T21:56:27.238Z,16.45
2023-01-07T21:58:55.398Z,13.82
2023-01-07T22:01:28.683Z,13.02
2023-01-07T22:03:59.147Z,17.73
2023-01-07T22:06:35.703Z,19.77
2023-01-07T22:09:07.092Z,13.80
2023-01-07T22:11:38.527Z,16.80
2023-01-07T22:14:09.876Z,13.70
2023-01-07T22:16:38.291Z,13.73
2023-01-07T22:19:07.098Z,23.10
2023-01-07T22:21:35.316Z,10.00
2023-01-07T22:24:03.597Z,13.15
2023-01-07T22:26:32.245Z,13.90
2023-01-07T22:29:03.487Z,16.33
2023-01-07T22:31:36.386Z,9.55
2023-01-07T22:34:06.173Z,7.62
2023-01-07T22:36:34.451Z,12.57
2023-01-07T22:39:15.330Z,11.65
2023-01-07T22:41:44.336Z,11.57
2023-01-07T22:44:20.739Z,9.60
2023-01-07T22:46:51.052Z,10.77
2023-01-07T22:49:25.358Z,12.82
2023-01-07T22:51:54.636Z,14.77
2023-01-07T22:54:23.602Z,13.95
2023-01-07T22:56:52.106Z,6.37
2023-01-07T22:59:20.766Z,11.02
2023-01-07T23:01:48.742Z,8.70
2023-01-07T23:04:16.930Z,7.47
2023-01-07T23:06:45.453Z,13.05
2023-01-07T23:09:13.688Z,8.90
2023-01-07T23:11:47.960Z,9.18
2023-01-07T23:14:26.958Z,12.50
2023-01-07T23:16:55.942Z,11.70
2023-01-07T23:19:25.025Z,20.05
2023-01-07T23:21:54.628Z,15.52
2023-01-07T23:24:24.010Z,9.57
2023-01-07T23:26:54.646Z,8.45
2023-01-07T23:29:23.204Z,13.55
2023-01-07T23:31:51.451Z,8.93
2023-01-07T23:34:19.978Z,14.55
2023-01-07T23:36:48.171Z,11.40
2023-01-07T23:39:16.682Z,10.90
2023-01-07T23:41:45.779Z,9.02
2023-01-07T23:44:13.894Z,8.70
2023-01-07T23:46:42.029Z,15.10
2023-01-07T23:49:10.404Z,16.15
2023-01-07T23:51:40.408Z,11.80
2023-01-07T23:54:08.493Z,8.18
2023-01-07T23:56:36.791Z,12.43
2023-01-07T23:59:04.767Z,11.82
